Time;durP1;ratioP1;P1;durP2;ratioP2;P2;SDS_P1;SDS_P2;PMS_P1;PMS_P2;Temp;Humidity;BMP_temperature;BMP_pressure;BME280_temperature;BME280_humidity;BME280_pressure;Samples;Min_cycle;Max_cycle;Signal;HPM_P1;HPM_P2
2021/06/04 00:01:26;;;;;;;9.85;6.35;;;;;;;15.64;96.57;98618.19;5015049;28;20103;-78
2021/06/04 00:03:52;;;;;;;8.63;6.47;;;;;;;15.57;98.77;98611.47;4997498;28;20029;-76
2021/06/04 00:06:19;;;;;;;9.90;7.20;;;;;;;15.50;100.00;98618.25;4998759;28;20030;-80
2021/06/04 00:08:46;;;;;;;9.30;7.57;;;;;;;15.46;100.00;98617.19;5024611;28;20491;-80
2021/06/04 00:11:29;;;;;;;20.58;9.60;;;;;;;15.39;100.00;98618.72;4999615;28;20042;-78
2021/06/04 00:14:00;;;;;;;9.27;8.38;;;;;;;15.43;100.00;98622.50;4997177;28;20026;-78
2021/06/04 00:16:30;;;;;;;8.52;7.43;;;;;;;15.40;100.00;98606.59;5013461;28;20045;-80
2021/06/04 00:18:57;;;;;;;9.82;8.65;;;;;;;15.43;100.00;98622.50;4997022;28;20042;-79
2021/06/04 00:21:27;;;;;;;12.07;8.68;;;;;;;15.44;100.00;98621.41;5014284;28;20026;-81
2021/06/04 00:23:53;;;;;;;10.23;9.18;;;;;;;15.38;100.00;98620.66;5014335;28;20121;-79
2021/06/04 00:26:20;;;;;;;10.95;9.80;;;;;;;15.31;100.00;98630.50;4996990;28;20753;-80
2021/06/04 00:28:46;;;;;;;12.98;9.70;;;;;;;15.29;100.00;98627.22;5014486;28;20509;-81
2021/06/04 00:31:12;;;;;;;11.00;9.90;;;;;;;15.19;100.00;98625.50;4996634;28;20045;-80
2021/06/04 00:33:38;;;;;;;11.48;8.82;;;;;;;15.26;100.00;98630.59;5014508;28;20084;-79
2021/06/04 00:36:05;;;;;;;13.23;9.13;;;;;;;15.18;100.00;98629.41;5014106;28;20483;-80
2021/06/04 00:38:31;;;;;;;9.85;8.90;;;;;;;15.16;100.00;98637.16;5014120;28;20041;-82
2021/06/04 00:41:07;;;;;;;11.07;9.43;;;;;;;15.30;100.00;98639.88;5014439;28;20475;-82
2021/06/04 00:43:33;;;;;;;12.45;9.15;;;;;;;15.11;100.00;98642.78;5014222;28;20372;-80
2021/06/04 00:46:01;;;;;;;14.02;8.02;;;;;;;14.98;100.00;98638.09;5014353;28;20124;-83
2021/06/04 00:48:27;;;;;;;9.27;6.93;;;;;;;14.95;100.00;98642.28;5014167;28;20034;-80
2021/06/04 00:51:02;;;;;;;9.10;7.80;;;;;;;14.98;100.00;98638.91;5007791;28;20037;-80
2021/06/04 00:53:28;;;;;;;12.07;7.15;;;;;;;14.82;100.00;98634.81;4993558;28;20034;-78
2021/06/04 00:55:55;;;;;;;9.77;8.63;;;;;;;14.73;100.00;98631.16;4994129;28;20037;-80
2021/06/04 00:58:24;;;;;;;9.13;7.65;;;;;;;14.92;100.00;98634.63;4994068;28;20034;-79
2021/06/04 01:00:52;;;;;;;8.90;7.70;;;;;;;14.97;100.00;98642.78;4994244;28;20484;-80
2021/06/04 01:03:22;;;;;;;7.93;7.10;;;;;;;15.04;100.00;98647.88;4994080;28;20038;-81
2021/06/04 01:05:48;;;;;;;13.75;9.50;;;;;;;14.92;100.00;98642.88;4994221;28;20031;-80
2021/06/04 01:08:33;;;;;;;9.65;7.90;;;;;;;14.72;100.00;98651.53;4994086;28;20026;-81
2021/06/04 01:11:02;;;;;;;7.55;5.57;;;;;;;14.76;100.00;98641.56;4992647;28;20042;-81
2021/06/04 01:13:53;;;;;;;8.43;6.63;;;;;;;14.83;100.00;98639.22;4993988;28;20415;-82
2021/06/04 01:16:29;;;;;;;10.80;7.30;;;;;;;14.73;100.00;98641.34;4993891;28;20029;-82
2021/06/04 01:19:15;;;;;;;8.27;7.45;;;;;;;14.71;100.00;98644.44;4993706;28;20454;-79
2021/06/04 01:21:48;;;;;;;7.47;6.78;;;;;;;14.67;100.00;98643.41;4992579;28;20030;-80
2021/06/04 01:24:29;;;;;;;10.43;8.98;;;;;;;14.65;100.00;98648.41;4993781;28;20027;-78
2021/06/04 01:27:00;;;;;;;7.15;6.55;;;;;;;14.63;100.00;98642.38;4992508;28;20061;-80
2021/06/04 01:29:33;;;;;;;9.15;6.85;;;;;;;14.74;100.00;98640.25;4992201;28;20066;-80
2021/06/04 01:32:03;;;;;;;7.90;7.10;;;;;;;14.74;100.00;98632.81;4993757;28;20026;-81
2021/06/04 01:34:32;;;;;;;7.60;6.45;;;;;;;14.70;100.00;98637.28;4993687;28;20037;-80
2021/06/04 01:37:08;;;;;;;10.88;7.07;;;;;;;14.62;100.00;98639.94;4993566;28;20113;-80
2021/06/04 01:39:38;;;;;;;12.13;7.70;;;;;;;14.72;100.00;98634.22;4993341;28;20503;-81
2021/06/04 01:42:06;;;;;;;8.30;7.32;;;;;;;14.78;100.00;98641.28;4993415;28;20125;-80
2021/06/04 01:44:48;;;;;;;10.18;7.65;;;;;;;14.62;100.00;98634.41;4993400;28;20022;-80
2021/06/04 01:47:19;;;;;;;10.18;8.00;;;;;;;14.39;100.00;98637.03;4993263;28;20050;-81
2021/06/04 01:49:47;;;;;;;13.45;9.35;;;;;;;14.31;100.00;98636.91;5007967;28;20030;-81
2021/06/04 01:52:20;;;;;;;11.90;9.27;;;;;;;14.28;100.00;98643.00;4992967;28;20030;-80
2021/06/04 01:55:23;;;;;;;14.38;9.48;;;;;;;14.18;100.00;98634.94;4992984;28;20030;-78
2021/06/04 01:57:53;;;;;;;13.32;8.55;;;;;;;14.21;100.00;98648.06;4988355;28;20101;-81
2021/06/04 02:00:30;;;;;;;9.60;8.00;;;;;;;14.29;100.00;98648.19;4993118;28;20145;-81
2021/06/04 02:02:56;;;;;;;9.25;8.20;;;;;;;14.37;100.00;98650.31;4993774;28;20030;-81
2021/06/04 02:05:27;;;;;;;11.25;7.57;;;;;;;14.38;100.00;98651.09;4993104;28;20023;-80
2021/06/04 02:07:53;;;;;;;10.00;7.88;;;;;;;14.33;100.00;98643.75;4993045;28;20033;-82
2021/06/04 02:10:31;;;;;;;15.35;9.05;;;;;;;14.32;100.00;98646.78;4992345;28;20038;-80
2021/06/04 02:12:56;;;;;;;9.32;7.75;;;;;;;14.19;100.00;98639.31;4992366;28;20045;-80
2021/06/04 02:15:28;;;;;;;12.50;7.75;;;;;;;14.14;100.00;98634.72;4991751;28;20058;-78
2021/06/04 02:18:21;;;;;;;8.48;7.07;;;;;;;14.13;100.00;98640.50;5007655;28;20037;-79
2021/06/04 02:21:00;;;;;;;7.90;6.07;;;;;;;14.17;100.00;98644.28;4990970;28;20026;-78
2021/06/04 02:23:36;;;;;;;8.88;6.55;;;;;;;14.27;99.53;98642.19;4992932;28;20387;-78
2021/06/04 02:26:11;;;;;;;6.60;5.65;;;;;;;14.16;100.00;98648.19;5002108;28;20038;-79
2021/06/04 02:28:55;;;;;;;8.00;6.82;;;;;;;14.10;100.00;98633.66;4994882;28;20045;-77
2021/06/04 02:31:43;;;;;;;8.70;6.28;;;;;;;14.06;100.00;98627.16;5004207;28;20034;-78
2021/06/04 02:34:26;;;;;;;8.68;6.82;;;;;;;14.02;100.00;98630.81;4993938;28;20030;-80
2021/06/04 02:37:01;;;;;;;7.97;6.53;;;;;;;13.99;100.00;98625.91;5011515;28;20030;-79
2021/06/04 02:39:27;;;;;;;7.50;6.40;;;;;;;13.96;100.00;98632.81;5011872;28;20040;-78
2021/06/04 02:42:01;;;;;;;9.07;6.80;;;;;;;14.04;100.00;98634.06;4993997;28;20038;-81
2021/06/04 02:44:33;;;;;;;6.15;5.55;;;;;;;14.02;100.00;98642.63;4994215;28;20030;-79
2021/06/04 02:47:05;;;;;;;10.18;6.53;;;;;;;13.94;100.00;98641.38;5011622;28;20053;-78
2021/06/04 02:49:34;;;;;;;11.23;7.35;;;;;;;14.02;100.00;98641.81;5011370;28;20030;-79
2021/06/04 02:52:10;;;;;;;6.88;6.25;;;;;;;14.04;100.00;98640.38;5011795;28;20065;-79
2021/06/04 02:54:41;;;;;;;8.68;6.20;;;;;;;14.22;99.97;98647.75;5011941;28;20026;-83
2021/06/04 02:57:10;;;;;;;7.60;6.75;;;;;;;14.14;100.00;98640.22;4991413;28;20479;-85
2021/06/04 02:59:39;;;;;;;7.22;6.40;;;;;;;14.15;100.00;98641.84;5002781;28;20148;-86
2021/06/04 03:02:16;;;;;;;11.57;8.07;;;;;;;14.09;100.00;98647.75;5013545;28;20034;-87
2021/06/04 03:04:46;;;;;;;10.18;7.00;;;;;;;14.17;100.00;98649.78;5014470;28;20034;-87
2021/06/04 03:07:20;;;;;;;14.07;6.70;;;;;;;14.25;99.89;98649.13;5014461;28;20030;-87
2021/06/04 03:09:46;;;;;;;7.70;6.60;;;;;;;14.43;99.18;98646.34;5014210;28;20069;-86
2021/06/04 03:12:17;;;;;;;12.20;9.45;;;;;;;14.35;100.00;98647.00;5014520;28;20026;-88
2021/06/04 03:14:43;;;;;;;15.02;12.48;;;;;;;14.21;100.00;98646.16;5014374;28;20037;-87
2021/06/04 03:17:11;;;;;;;14.25;11.52;;;;;;;14.18;100.00;98640.44;4996881;28;20029;-88
2021/06/04 03:19:38;;;;;;;14.48;12.35;;;;;;;14.00;100.00;98644.03;5012606;28;20032;-86
2021/06/04 03:22:11;;;;;;;14.93;13.43;;;;;;;13.96;100.00;98646.56;4995441;28;20037;-87
2021/06/04 03:24:40;;;;;;;20.20;13.95;;;;;;;14.05;100.00;98654.94;5013675;28;20022;-87
2021/06/04 03:27:07;;;;;;;16.40;12.85;;;;;;;14.08;100.00;98657.94;4996166;28;20032;-87
2021/06/04 03:29:33;;;;;;;13.05;11.23;;;;;;;14.08;100.00;98666.19;5013066;28;20088;-86
2021/06/04 03:32:04;;;;;;;15.02;10.77;;;;;;;14.12;100.00;98663.66;5013901;28;20033;-87
2021/06/04 03:34:30;;;;;;;13.73;9.27;;;;;;;14.16;100.00;98665.47;4996174;28;20026;-87
2021/06/04 03:36:58;;;;;;;9.98;8.43;;;;;;;14.19;100.00;98675.88;4995935;28;20145;-86
2021/06/04 03:39:28;;;;;;;12.90;8.70;;;;;;;14.29;100.00;98675.72;4996420;28;20079;-86
2021/06/04 03:41:55;;;;;;;12.40;10.23;;;;;;;14.25;100.00;98669.16;5016061;28;20098;-85
2021/06/04 03:44:23;;;;;;;13.90;11.23;;;;;;;14.15;100.00;98663.03;5014085;28;20010;-82
2021/06/04 03:46:49;;;;;;;14.88;10.45;;;;;;;14.22;100.00;98669.00;5015789;28;20046;-87
2021/06/04 03:49:17;;;;;;;12.02;10.43;;;;;;;14.33;100.00;98664.97;5019879;28;20021;-83
2021/06/04 03:51:46;;;;;;;17.55;11.70;;;;;;;14.44;100.00;98663.63;5018366;28;20006;-87
2021/06/04 03:54:16;;;;;;;13.90;11.77;;;;;;;14.61;100.00;98654.81;5019148;28;20018;-86
2021/06/04 03:56:44;;;;;;;12.90;9.93;;;;;;;15.01;99.76;98652.06;5018409;28;20021;-84
2021/06/04 03:59:09;;;;;;;12.30;9.82;;;;;;;15.22;97.60;98659.94;5036263;28;20030;-84
2021/06/04 04:01:46;;;;;;;10.52;8.98;;;;;;;15.14;95.58;98642.16;5018633;28;20068;-85
2021/06/04 04:04:13;;;;;;;14.65;8.15;;;;;;;15.40;93.02;98670.00;5033246;28;20121;-86
2021/06/04 04:06:40;;;;;;;9.07;7.25;;;;;;;15.34;92.26;98666.53;5019838;28;20025;-85
2021/06/04 04:09:08;;;;;;;10.35;6.88;;;;;;;15.14;93.39;98679.91;5018649;28;20014;-83
2021/06/04 04:11:34;;;;;;;9.18;7.55;;;;;;;14.91;94.02;98665.25;5034125;28;20081;-86
2021/06/04 04:14:01;;;;;;;15.40;8.70;;;;;;;14.86;94.68;98674.41;5014345;28;20030;-84
2021/06/04 04:16:26;;;;;;;12.95;8.05;;;;;;;14.99;94.69;98665.34;5013516;28;20052;-84
2021/06/04 04:18:52;;;;;;;9.23;7.97;;;;;;;15.05;93.25;98648.69;5019881;28;20018;-86
2021/06/04 04:21:17;;;;;;;10.73;8.98;;;;;;;15.36;91.46;98655.19;5030006;28;20058;-85
2021/06/04 04:23:48;;;;;;;11.07;7.93;;;;;;;15.94;89.50;98678.13;5009255;28;20006;-87
2021/06/04 04:26:18;;;;;;;8.50;6.93;;;;;;;16.49;86.07;98686.16;5028350;28;20018;-86
2021/06/04 04:28:46;;;;;;;15.25;7.85;;;;;;;16.34;86.52;98678.28;5012281;28;20034;-87
2021/06/04 04:31:16;;;;;;;9.00;7.20;;;;;;;16.34;87.27;98672.75;5018722;28;20018;-87
2021/06/04 04:33:41;;;;;;;10.07;7.53;;;;;;;16.43;87.27;98676.38;5033425;28;20029;-83
2021/06/04 04:36:09;;;;;;;11.18;7.82;;;;;;;16.32;88.09;98672.28;5019452;28;20010;-87
2021/06/04 04:38:35;;;;;;;7.55;6.78;;;;;;;16.39;87.35;98672.63;5012391;28;20034;-86
2021/06/04 04:41:03;;;;;;;12.57;7.38;;;;;;;16.45;86.65;98676.88;4991605;28;20096;-86
2021/06/04 04:43:31;;;;;;;13.57;7.47;;;;;;;16.29;88.01;98681.97;4991847;28;20121;-86
2021/06/04 04:45:57;;;;;;;9.52;7.07;;;;;;;16.24;88.73;98675.78;4989912;28;20061;-87
2021/06/04 04:48:23;;;;;;;8.13;7.30;;;;;;;16.21;88.45;98681.94;5010577;28;20102;-86
2021/06/04 04:50:49;;;;;;;10.05;7.30;;;;;;;16.23;88.36;98680.47;5007784;28;20030;-85
2021/06/04 04:53:16;;;;;;;18.73;9.05;;;;;;;16.31;86.95;98671.44;4992939;28;20033;-86
2021/06/04 04:55:42;;;;;;;13.52;8.40;;;;;;;16.43;85.81;98668.91;4986656;28;20050;-86
2021/06/04 04:58:09;;;;;;;13.25;9.13;;;;;;;16.38;86.16;98671.00;4989567;28;20034;-87
2021/06/04 05:00:36;;;;;;;11.25;9.15;;;;;;;16.54;85.52;98666.69;5001603;28;20034;-85
2021/06/04 05:03:03;;;;;;;16.65;10.30;;;;;;;16.47;85.81;98669.13;5000835;28;20022;-89
2021/06/04 05:05:33;;;;;;;13.23;8.80;;;;;;;16.51;86.68;98683.91;4990269;28;20476;-86
2021/06/04 05:07:58;;;;;;;9.75;7.72;;;;;;;16.55;86.77;98687.69;5006900;28;20061;-90
2021/06/04 05:10:25;;;;;;;11.43;7.38;;;;;;;16.26;87.74;98688.13;4994846;28;20458;-86
2021/06/04 05:12:51;;;;;;;15.88;8.45;;;;;;;16.47;87.57;98691.22;4983053;28;20049;-85
2021/06/04 05:15:20;;;;;;;8.30;7.30;;;;;;;16.56;86.90;98683.81;5000128;28;20479;-86
2021/06/04 05:17:46;;;;;;;9.85;8.80;;;;;;;16.66;86.19;98688.25;4989302;28;20467;-86
2021/06/04 05:20:13;;;;;;;11.77;7.45;;;;;;;16.86;85.43;98690.47;4989823;28;20029;-86
2021/06/04 05:22:39;;;;;;;10.85;8.30;;;;;;;17.01;84.45;98690.84;5015715;28;20038;-85
2021/06/04 05:25:11;;;;;;;13.55;8.73;;;;;;;16.72;85.66;98696.09;4987698;28;20026;-87
2021/06/04 05:27:37;;;;;;;13.13;8.25;;;;;;;17.10;84.46;98699.19;5006307;28;20026;-87
2021/06/04 05:30:08;;;;;;;10.50;9.40;;;;;;;17.14;84.08;98697.41;4986519;28;20025;-84
2021/06/04 05:32:33;;;;;;;11.90;9.30;;;;;;;16.94;84.28;98671.16;4988634;28;20037;-81
2021/06/04 05:34:58;;;;;;;16.45;10.18;;;;;;;17.08;84.37;98693.16;5008931;28;20038;-82
2021/06/04 05:37:24;;;;;;;14.73;10.23;;;;;;;17.46;83.25;98693.44;4985636;28;20503;-82
2021/06/04 05:39:49;;;;;;;15.63;10.63;;;;;;;17.23;83.91;98703.00;4980278;28;20121;-83
2021/06/04 05:42:15;;;;;;;16.63;11.50;;;;;;;17.26;83.86;98705.09;4993223;28;20378;-79
2021/06/04 05:44:42;;;;;;;19.25;11.52;;;;;;;17.36;83.18;98690.97;4992758;28;20034;-81
2021/06/04 05:47:11;;;;;;;14.20;11.15;;;;;;;17.34;83.79;98694.06;5000872;28;20050;-83
2021/06/04 05:49:36;;;;;;;18.25;13.10;;;;;;;17.11;84.17;98687.81;4993832;28;20041;-80
2021/06/04 05:52:08;;;;;;;17.73;12.23;;;;;;;17.51;82.35;98691.31;4993736;28;20030;-83
2021/06/04 05:54:38;;;;;;;14.15;11.68;;;;;;;17.69;81.00;98688.63;4992743;28;20030;-83
2021/06/04 05:57:05;;;;;;;28.70;14.23;;;;;;;17.45;83.18;98694.56;4975355;28;20019;-82
2021/06/04 05:59:32;;;;;;;19.67;13.88;;;;;;;17.72;82.31;98696.28;4975576;28;20034;-79
2021/06/04 06:01:58;;;;;;;18.48;13.35;;;;;;;17.47;82.13;98684.00;4975279;28;20033;-81
2021/06/04 06:04:24;;;;;;;17.00;11.85;;;;;;;17.70;81.09;98691.06;4992756;28;20129;-86
2021/06/04 06:06:52;;;;;;;17.48;12.05;;;;;;;17.76;81.60;98695.31;4976097;28;20128;-84
2021/06/04 06:09:19;;;;;;;18.75;14.20;;;;;;;17.49;82.84;98701.09;4975222;28;20026;-79
2021/06/04 06:11:44;;;;;;;21.92;15.40;;;;;;;17.62;82.43;98698.22;4985189;28;20388;-79
2021/06/04 06:14:10;;;;;;;22.85;13.75;;;;;;;17.59;82.48;98700.81;4994019;28;20041;-80
2021/06/04 06:16:37;;;;;;;25.23;15.45;;;;;;;18.16;80.33;98699.56;5011548;28;20042;-78
2021/06/04 06:19:05;;;;;;;25.08;16.30;;;;;;;18.35;78.88;98701.19;5011449;28;20034;-76
2021/06/04 06:21:31;;;;;;;28.58;17.45;;;;;;;18.47;78.62;98704.91;5003823;28;20438;-77
2021/06/04 06:23:57;;;;;;;26.45;19.05;;;;;;;18.29;79.48;98700.53;4991587;28;20046;-78
2021/06/04 06:26:28;;;;;;;33.67;18.70;;;;;;;18.43;79.41;98703.94;4974650;28;20018;-78
2021/06/04 06:28:55;;;;;;;30.08;19.75;;;;;;;18.60;79.03;98708.69;4991659;28;20451;-80
2021/06/04 06:31:28;;;;;;;29.85;19.15;;;;;;;18.64;78.69;98709.63;4991745;28;20069;-77
2021/06/04 06:33:55;;;;;;;33.65;19.00;;;;;;;18.38;79.29;98706.06;4979352;28;20566;-76
2021/06/04 06:36:26;;;;;;;35.95;19.27;;;;;;;18.27;80.20;98699.22;5011095;28;20037;-77
2021/06/04 06:38:54;;;;;;;34.03;18.33;;;;;;;18.82;78.53;98702.91;4993306;28;20583;-80
2021/06/04 06:41:20;;;;;;;33.95;19.38;;;;;;;18.79;78.08;98706.34;5010895;28;20036;-76
2021/06/04 06:43:51;;;;;;;27.58;18.17;;;;;;;18.91;76.85;98709.25;4993362;28;20432;-78
2021/06/04 06:46:18;;;;;;;24.17;16.15;;;;;;;19.32;75.61;98705.81;5008784;28;20053;-76
2021/06/04 06:48:44;;;;;;;28.42;16.70;;;;;;;19.24;75.69;98706.66;4999229;28;20045;-78
2021/06/04 06:51:10;;;;;;;30.67;16.70;;;;;;;19.22;75.50;98709.78;4999365;28;20044;-75
2021/06/04 06:53:39;;;;;;;36.38;18.05;;;;;;;19.23;74.89;98705.84;4983654;28;20018;-77
2021/06/04 06:56:06;;;;;;;23.80;16.55;;;;;;;19.41;74.69;98705.78;4999255;28;20033;-77
2021/06/04 06:58:32;;;;;;;32.70;17.58;;;;;;;19.36;74.82;98709.53;5006564;28;20077;-79
2021/06/04 07:00:58;;;;;;;31.02;14.80;;;;;;;19.57;72.87;98698.53;4985301;28;20034;-77
2021/06/04 07:03:35;;;;;;;26.38;15.00;;;;;;;19.85;72.57;98701.59;4998898;28;20073;-80
2021/06/04 07:06:04;;;;;;;20.30;14.00;;;;;;;20.05;71.19;98696.03;4978824;28;20030;-76
2021/06/04 07:08:30;;;;;;;24.73;13.18;;;;;;;20.15;70.73;98701.19;4983480;28;20063;-79
2021/06/04 07:10:56;;;;;;;23.13;13.88;;;;;;;19.84;71.79;98691.63;4998283;28;20087;-78
2021/06/04 07:13:28;;;;;;;20.77;13.57;;;;;;;19.92;71.78;98699.94;5000277;28;20037;-76
2021/06/04 07:15:56;;;;;;;26.58;14.88;;;;;;;20.17;70.46;98689.75;4982883;28;20053;-74
2021/06/04 07:18:22;;;;;;;23.90;13.13;;;;;;;20.45;69.69;98696.38;5001055;28;20026;-75
2021/06/04 07:20:48;;;;;;;19.27;12.50;;;;;;;20.33;69.04;98689.97;4999008;28;20022;-74
2021/06/04 07:23:13;;;;;;;19.55;12.50;;;;;;;20.56;68.50;98699.53;4999981;28;20027;-76
2021/06/04 07:25:42;;;;;;;20.55;13.57;;;;;;;20.54;68.79;98694.34;4998439;28;20094;-75
2021/06/04 07:28:10;;;;;;;24.05;11.70;;;;;;;20.59;68.13;98687.72;4981465;28;20161;-75
2021/06/04 07:30:39;;;;;;;21.60;12.68;;;;;;;20.92;66.96;98694.09;4982416;28;20034;-75
2021/06/04 07:33:11;;;;;;;18.88;11.95;;;;;;;21.44;65.16;98699.00;4998046;28;20109;-75
2021/06/04 07:35:38;;;;;;;21.88;12.82;;;;;;;21.56;64.27;98693.44;5000652;28;20082;-75
2021/06/04 07:38:05;;;;;;;17.23;11.98;;;;;;;21.77;63.93;98696.91;4981916;28;20036;-76
2021/06/04 07:40:31;;;;;;;18.05;11.70;;;;;;;22.18;62.17;98702.16;4999115;28;20034;-74
2021/06/04 07:42:59;;;;;;;17.48;11.35;;;;;;;22.14;61.33;98694.88;4980457;28;20431;-75
2021/06/04 07:45:31;;;;;;;22.67;11.07;;;;;;;21.98;61.43;98692.03;4998880;28;20501;-74
2021/06/04 07:47:58;;;;;;;14.30;10.45;;;;;;;22.04;60.86;98693.41;4994845;28;20030;-74
2021/06/04 07:50:23;;;;;;;20.48;11.45;;;;;;;22.08;60.83;98685.16;5002837;28;20088;-74
2021/06/04 07:52:49;;;;;;;18.92;11.82;;;;;;;22.86;59.48;98693.78;4996147;28;20606;-75
2021/06/04 07:55:15;;;;;;;18.55;11.00;;;;;;;22.89;59.26;98688.28;5000614;28;20026;-74
2021/06/04 07:57:41;;;;;;;21.60;11.82;;;;;;;23.65;56.65;98689.03;4989467;28;20038;-75
2021/06/04 08:00:19;;;;;;;14.98;10.20;;;;;;;23.80;54.25;98679.78;4971874;28;20026;-75
2021/06/04 08:02:45;;;;;;;12.00;8.18;;;;;;;24.84;52.58;98687.22;4971710;28;20070;-75
2021/06/04 08:05:11;;;;;;;12.02;8.43;;;;;;;26.90;45.68;98689.94;4992968;28;20535;-75
2021/06/04 08:07:37;;;;;;;13.18;8.38;;;;;;;25.99;48.03;98695.97;4989955;28;20360;-76
2021/06/04 08:10:06;;;;;;;18.50;10.57;;;;;;;26.32;46.07;98688.78;4998271;28;20123;-76
2021/06/04 08:12:32;;;;;;;11.60;8.15;;;;;;;26.47;46.34;98694.22;4983087;28;20029;-76
2021/06/04 08:15:23;;;;;;;12.05;9.75;;;;;;;27.54;43.25;98694.16;4996554;28;20038;-75
2021/06/04 08:17:49;;;;;;;9.90;7.60;;;;;;;27.93;40.74;98690.81;4992767;28;20034;-76
2021/06/04 08:20:22;;;;;;;9.23;6.63;;;;;;;28.27;39.18;98697.06;4993007;28;20026;-74
2021/06/04 08:22:50;;;;;;;11.60;8.07;;;;;;;27.57;41.49;98690.56;4992887;28;20092;-76
2021/06/04 08:25:16;;;;;;;17.92;6.22;;;;;;;27.85;41.24;98684.34;4992795;28;20443;-75
2021/06/04 08:27:42;;;;;;;9.48;6.78;;;;;;;26.87;42.72;98682.28;4975297;28;20121;-74
2021/06/04 08:30:09;;;;;;;8.57;5.75;;;;;;;27.51;40.92;98683.69;4992306;28;20121;-78
2021/06/04 08:32:35;;;;;;;11.45;6.05;;;;;;;28.66;38.79;98684.78;4992522;28;20035;-75
2021/06/04 08:35:03;;;;;;;9.18;5.28;;;;;;;28.53;39.18;98677.91;4993170;28;20031;-75
2021/06/04 08:37:28;;;;;;;6.28;5.50;;;;;;;29.13;37.77;98677.28;4975102;28;20034;-77
2021/06/04 08:39:54;;;;;;;11.32;6.35;;;;;;;29.17;37.71;98675.25;4992899;28;20049;-76
2021/06/04 08:42:30;;;;;;;8.90;5.70;;;;;;;28.78;38.35;98671.56;5010825;28;20041;-76
2021/06/04 08:45:29;;;;;;;11.88;6.63;;;;;;;28.33;39.32;98665.34;4993005;28;20061;-76
2021/06/04 08:48:12;;;;;;;9.60;5.95;;;;;;;29.38;37.81;98664.03;5012520;28;20087;-77
2021/06/04 08:51:02;;;;;;;9.88;6.55;;;;;;;28.95;38.26;98665.13;4991096;28;20444;-79
2021/06/04 08:53:54;;;;;;;11.93;5.30;;;;;;;30.61;35.08;98662.94;4975034;28;20034;-79
2021/06/04 08:56:25;;;;;;;4.75;3.80;;;;;;;29.09;36.34;98654.72;4970654;28;20484;-76
2021/06/04 08:59:03;;;;;;;4.50;3.88;;;;;;;28.98;35.35;98653.06;4997864;28;20052;-77
2021/06/04 09:01:43;;;;;;;6.68;3.70;;;;;;;28.44;37.15;98651.31;5001765;28;20065;-77
2021/06/04 09:04:22;;;;;;;8.30;4.38;;;;;;;28.56;36.43;98654.56;5002370;28;20037;-75
2021/06/04 09:06:56;;;;;;;5.07;3.55;;;;;;;29.26;35.14;98643.88;5001784;28;20033;-75
2021/06/04 09:09:40;;;;;;;4.90;2.63;;;;;;;29.29;34.59;98652.31;5001749;28;20379;-77
2021/06/04 09:12:15;;;;;;;4.53;3.00;;;;;;;29.57;34.74;98657.16;5003488;28;20069;-78
2021/06/04 09:14:40;;;;;;;4.63;3.60;;;;;;;30.00;34.81;98655.09;4984395;28;20312;-75
2021/06/04 09:17:46;;;;;;;5.13;3.42;;;;;;;30.41;33.71;98650.53;4986085;28;20088;-77
2021/06/04 09:20:38;;;;;;;9.68;4.43;;;;;;;29.84;34.76;98644.25;5000703;28;20046;-77
2021/06/04 09:23:08;;;;;;;7.47;3.42;;;;;;;30.98;32.91;98638.97;5000767;28;20034;-78
2021/06/04 09:25:35;;;;;;;7.90;3.92;;;;;;;30.05;34.61;98638.53;4999068;28;20042;-78
2021/06/04 09:28:09;;;;;;;5.70;2.92;;;;;;;30.00;34.64;98640.97;4975014;28;20026;-78
2021/06/04 09:30:35;;;;;;;8.10;3.17;;;;;;;29.50;35.71;98637.44;4992083;28;20651;-78
2021/06/04 09:33:18;;;;;;;5.38;3.78;;;;;;;30.15;33.78;98634.06;4992835;28;20034;-78
2021/06/04 09:35:57;;;;;;;5.53;3.72;;;;;;;30.03;34.48;98632.50;4974811;28;20496;-78
2021/06/04 09:38:44;;;;;;;4.20;3.42;;;;;;;30.61;34.01;98629.03;4975482;28;20125;-78
2021/06/04 09:41:26;;;;;;;4.78;3.60;;;;;;;30.14;34.10;98615.50;5010911;28;20030;-78
2021/06/04 09:44:19;;;;;;;5.32;3.38;;;;;;;30.30;33.81;98621.50;4987128;28;20516;-78
2021/06/04 09:46:58;;;;;;;4.47;3.10;;;;;;;30.69;32.92;98624.97;4966472;28;20050;-77
2021/06/04 09:49:48;;;;;;;6.45;3.50;;;;;;;30.26;33.48;98609.44;4991121;28;20030;-77
2021/06/04 09:52:22;;;;;;;6.57;3.13;;;;;;;31.11;32.12;98611.78;4961895;28;20054;-76
2021/06/04 09:55:04;;;;;;;4.57;3.40;;;;;;;30.16;33.49;98607.47;4991569;28;20042;-74
2021/06/04 09:57:31;;;;;;;2.72;2.42;;;;;;;30.59;33.29;98613.72;4991013;28;20124;-74
2021/06/04 10:00:17;;;;;;;4.00;3.10;;;;;;;30.47;32.78;98609.34;4991458;28;20030;-74
2021/06/04 10:02:42;;;;;;;7.13;3.85;;;;;;;29.90;33.81;98607.94;5000262;28;20065;-75
2021/06/04 10:05:26;;;;;;;3.53;2.58;;;;;;;30.14;33.58;98612.69;4980855;28;20125;-77
2021/06/04 10:08:17;;;;;;;4.07;3.28;;;;;;;31.30;31.91;98606.34;4991439;28;20042;-77
2021/06/04 10:10:44;;;;;;;5.35;2.90;;;;;;;32.74;29.51;98608.81;4973522;28;20038;-76
2021/06/04 10:13:35;;;;;;;6.68;3.67;;;;;;;33.37;28.70;98606.19;4991261;28;20519;-76
2021/06/04 10:16:03;;;;;;;3.55;3.25;;;;;;;31.01;32.02;98601.38;4974060;28;20034;-76
2021/06/04 10:18:34;;;;;;;5.20;3.22;;;;;;;30.89;32.13;98596.97;4990568;28;20034;-75
2021/06/04 10:21:31;;;;;;;3.13;2.83;;;;;;;31.45;31.34;98592.09;4973489;28;20027;-76
2021/06/04 10:23:58;;;;;;;4.20;2.78;;;;;;;31.93;30.93;98592.00;4971939;28;20112;-76
2021/06/04 10:26:31;;;;;;;3.30;2.53;;;;;;;31.75;31.16;98590.19;4991525;28;20088;-77
2021/06/04 10:29:14;;;;;;;4.85;3.13;;;;;;;30.93;32.56;98586.44;4991667;28;20084;-76
2021/06/04 10:31:51;;;;;;;5.88;2.72;;;;;;;28.92;34.88;98581.41;4972996;28;20034;-76
2021/06/04 10:34:42;;;;;;;5.13;2.85;;;;;;;28.47;36.94;98572.50;4990689;28;20030;-76
2021/06/04 10:37:22;;;;;;;3.53;2.92;;;;;;;28.57;36.31;98571.69;4975053;28;20034;-77
2021/06/04 10:40:04;;;;;;;3.08;2.78;;;;;;;27.79;36.95;98581.03;5010426;28;20133;-79
2021/06/04 10:43:00;;;;;;;6.15;2.55;;;;;;;27.46;37.21;98573.63;4990166;28;20045;-77
2021/06/04 10:45:28;;;;;;;5.85;2.55;;;;;;;26.69;38.90;98563.31;4973044;28;20129;-78
2021/06/04 10:48:11;;;;;;;2.80;2.30;;;;;;;26.67;39.72;98559.28;4990933;28;20026;-79
2021/06/04 10:51:14;;;;;;;2.83;2.30;;;;;;;27.38;38.87;98561.47;4973355;28;21365;-78
2021/06/04 10:53:48;;;;;;;4.55;2.78;;;;;;;28.18;36.96;98565.97;4991258;28;20117;-78
2021/06/04 10:56:20;;;;;;;2.53;2.10;;;;;;;28.42;36.66;98561.59;4973036;28;20037;-77
2021/06/04 10:59:03;;;;;;;5.75;3.05;;;;;;;28.48;36.90;98556.38;4973653;28;20030;-78
2021/06/04 11:01:35;;;;;;;3.30;2.63;;;;;;;28.80;35.99;98550.81;4973711;28;20037;-78
2021/06/04 11:04:09;;;;;;;3.60;2.80;;;;;;;28.73;36.45;98536.72;4991941;28;20026;-75
2021/06/04 11:06:38;;;;;;;3.75;2.40;;;;;;;28.39;37.15;98536.25;4974135;28;20057;-77
2021/06/04 11:09:06;;;;;;;4.35;2.90;;;;;;;28.15;37.35;98538.63;4989787;28;20480;-77
2021/06/04 11:11:39;;;;;;;4.20;2.30;;;;;;;28.40;37.27;98538.69;4991087;28;20037;-78
2021/06/04 11:14:23;;;;;;;2.95;2.25;;;;;;;27.68;38.96;98524.75;5003519;28;20045;-78
2021/06/04 11:17:04;;;;;;;3.38;2.92;;;;;;;27.36;39.49;98524.53;4991817;28;20125;-74
2021/06/04 11:19:43;;;;;;;3.30;2.92;;;;;;;27.38;39.70;98527.75;5009552;28;20398;-77
2021/06/04 11:22:24;;;;;;;3.00;2.50;;;;;;;27.32;40.03;98522.88;5009538;28;20107;-78
2021/06/04 11:24:58;;;;;;;3.25;2.47;;;;;;;27.87;38.76;98526.44;5009929;28;20090;-77
2021/06/04 11:27:31;;;;;;;2.80;2.42;;;;;;;27.88;38.84;98516.78;5010151;28;20030;-77
2021/06/04 11:29:57;;;;;;;5.00;2.45;;;;;;;28.23;38.84;98516.09;4991905;28;20030;-77
2021/06/04 11:32:29;;;;;;;2.65;2.10;;;;;;;28.58;38.24;98513.34;5010373;28;20026;-78
2021/06/04 11:34:59;;;;;;;3.70;3.38;;;;;;;28.67;37.72;98510.97;4996770;28;20030;-77
2021/06/04 11:37:33;;;;;;;2.75;2.30;;;;;;;29.00;36.64;98510.59;4993459;28;20034;-78
2021/06/04 11:40:19;;;;;;;2.88;2.33;;;;;;;29.16;36.22;98508.13;4989638;28;20030;-78
2021/06/04 11:42:51;;;;;;;2.60;1.98;;;;;;;28.79;36.41;98495.72;4972241;28;20030;-79
2021/06/04 11:45:22;;;;;;;7.53;2.30;;;;;;;29.06;36.44;98503.31;5008553;28;20062;-77